Time;durP1;ratioP1;P1;durP2;ratioP2;P2;SDS_P1;SDS_P2;PMS_P1;PMS_P2;Temp;Humidity;BMP_temperature;BMP_pressure;BME280_temperature;BME280_humidity;BME280_pressure;Samples;Min_cycle;Max_cycle;Signal;HPM_P1;HPM_P2
2022/04/28 00:02:00;;;;;;;;;;;20.40;36.00;;;;;;5075104;28;19958;-53
2022/04/28 00:04:28;;;;;;;;;;;20.40;36.00;;;;;;5058174;28;20326;-52
2022/04/28 00:06:54;;;;;;;;;;;20.40;36.00;;;;;;5073603;28;20432;-53
2022/04/28 00:09:21;;;;;;;;;;;20.40;36.00;;;;;;5039919;28;19921;-51
2022/04/28 00:11:49;;;;;;;;;;;20.40;36.00;;;;;;5075189;28;20023;-49
2022/04/28 00:14:18;;;;;;;;;;;20.40;36.00;;;;;;5074672;28;19936;-55
2022/04/28 00:16:45;;;;;;;;;;;20.40;36.00;;;;;;5066844;28;19920;-50
2022/04/28 00:19:12;;;;;;;;;;;20.40;35.90;;;;;;5070920;28;19960;-52
2022/04/28 00:21:38;;;;;;;;;;;20.40;35.90;;;;;;5041657;28;19920;-51
2022/04/28 00:24:05;;;;;;;;;;;20.40;35.90;;;;;;5053284;28;19925;-50
2022/04/28 00:26:32;;;;;;;;;;;20.40;35.90;;;;;;5067095;28;19928;-50
2022/04/28 00:28:59;;;;;;;;;;;20.40;35.90;;;;;;5053442;28;19955;-53
2022/04/28 00:31:27;;;;;;;;;;;20.40;35.90;;;;;;5056331;28;20365;-52
2022/04/28 00:33:53;;;;;;;;;;;20.40;35.90;;;;;;5042697;28;19929;-52
2022/04/28 00:36:20;;;;;;;;;;;20.40;35.90;;;;;;5052659;28;19974;-52
2022/04/28 00:38:47;;;;;;;;;;;20.40;35.90;;;;;;5053327;28;20382;-52
2022/04/28 00:41:14;;;;;;;;;;;20.40;35.90;;;;;;5058430;28;20152;-49
2022/04/28 00:43:47;;;;;;;;;;;20.40;35.90;;;;;;5067444;28;20265;-52
2022/04/28 00:46:14;;;;;;;;;;;20.40;35.90;;;;;;5072089;28;19921;-49
2022/04/28 00:51:26;;;;;;;;;;;20.40;36.00;;;;;;5069898;28;19928;-52
2022/04/28 00:53:53;;;;;;;;;;;20.40;35.90;;;;;;5053681;28;20023;-50
2022/04/28 00:56:20;;;;;;;;;;;20.40;35.90;;;;;;5055948;28;19974;-53
2022/04/28 00:58:47;;;;;;;;;;;20.40;36.00;;;;;;5053795;28;20351;-49
2022/04/28 01:01:14;;;;;;;;;;;20.40;35.90;;;;;;5068039;28;20328;-53
2022/04/28 01:03:42;;;;;;;;;;;20.40;35.90;;;;;;5057254;28;19931;-54
2022/04/28 01:06:09;;;;;;;;;;;20.40;35.90;;;;;;5060858;28;20424;-53
2022/04/28 01:08:36;;;;;;;;;;;20.30;35.80;;;;;;5040389;28;20119;-48
2022/04/28 01:11:03;;;;;;;;;;;20.40;35.90;;;;;;5070155;28;19928;-50
2022/04/28 01:13:30;;;;;;;;;;;20.40;35.80;;;;;;5057970;28;19925;-48
2022/04/28 01:15:56;;;;;;;;;;;20.40;35.80;;;;;;5063273;28;20669;-50
2022/04/28 01:18:23;;;;;;;;;;;20.40;35.90;;;;;;5072675;28;19927;-53
2022/04/28 01:20:51;;;;;;;;;;;20.30;35.70;;;;;;5068826;28;20381;-53
2022/04/28 01:23:19;;;;;;;;;;;20.40;35.80;;;;;;5055285;28;20366;-47
2022/04/28 01:25:46;;;;;;;;;;;20.40;35.80;;;;;;5072420;28;20031;-50
2022/04/28 01:28:13;;;;;;;;;;;20.40;35.90;;;;;;5071427;28;20027;-51
2022/04/28 01:30:39;;;;;;;;;;;20.40;35.80;;;;;;5072669;28;20011;-50
2022/04/28 01:33:06;;;;;;;;;;;20.40;35.90;;;;;;5070708;28;19921;-53
2022/04/28 01:35:33;;;;;;;;;;;20.40;35.80;;;;;;5042727;28;19991;-50
2022/04/28 01:38:00;;;;;;;;;;;20.40;35.80;;;;;;5058883;28;19975;-54
2022/04/28 01:40:28;;;;;;;;;;;20.40;35.80;;;;;;5039374;28;19929;-47
2022/04/28 01:42:55;;;;;;;;;;;20.40;35.80;;;;;;5041639;28;19974;-52
2022/04/28 01:45:22;;;;;;;;;;;20.40;35.80;;;;;;5058807;28;20373;-50
2022/04/28 01:47:49;;;;;;;;;;;20.40;35.80;;;;;;5073219;28;19928;-50
2022/04/28 01:50:15;;;;;;;;;;;20.30;35.70;;;;;;5054806;28;20345;-51
2022/04/28 01:55:30;;;;;;;;;;;20.30;35.70;;;;;;5057706;28;19921;-48
2022/04/28 01:57:57;;;;;;;;;;;20.30;35.70;;;;;;5053774;28;19920;-50
2022/04/28 02:00:24;;;;;;;;;;;20.40;35.80;;;;;;5056525;28;19920;-52
2022/04/28 02:02:51;;;;;;;;;;;20.30;35.70;;;;;;5040119;28;20425;-47
2022/04/28 02:05:17;;;;;;;;;;;20.30;35.70;;;;;;5055169;28;20015;-49
2022/04/28 02:07:44;;;;;;;;;;;20.40;35.70;;;;;;5051029;28;19928;-48
2022/04/28 02:10:11;;;;;;;;;;;20.30;35.60;;;;;;5038536;28;19927;-48
2022/04/28 02:12:39;;;;;;;;;;;20.30;35.60;;;;;;5053634;28;19921;-46
2022/04/28 02:15:06;;;;;;;;;;;20.30;35.60;;;;;;5053138;28;19924;-55
2022/04/28 02:17:34;;;;;;;;;;;20.30;35.70;;;;;;5050080;28;20337;-49
2022/04/28 02:20:02;;;;;;;;;;;20.30;35.60;;;;;;5047434;28;20341;-50
2022/04/28 02:22:29;;;;;;;;;;;20.30;35.60;;;;;;5055322;28;20008;-49
2022/04/28 02:24:56;;;;;;;;;;;20.40;35.70;;;;;;5066034;28;19924;-49
2022/04/28 02:27:24;;;;;;;;;;;20.30;35.60;;;;;;5057370;28;19931;-47
2022/04/28 02:29:52;;;;;;;;;;;20.30;35.60;;;;;;5036078;28;19921;-50
2022/04/28 02:32:19;;;;;;;;;;;20.30;35.60;;;;;;5063115;28;19921;-52
2022/04/28 02:34:45;;;;;;;;;;;20.30;35.60;;;;;;5044780;28;20037;-51
2022/04/28 02:37:13;;;;;;;;;;;20.30;35.60;;;;;;5025251;28;20373;-52
2022/04/28 02:39:40;;;;;;;;;;;20.30;35.60;;;;;;5052054;28;19928;-48
2022/04/28 02:42:07;;;;;;;;;;;20.30;35.60;;;;;;5072007;28;19920;-47
2022/04/28 02:44:34;;;;;;;;;;;20.30;35.60;;;;;;5060498;28;19927;-49
2022/04/28 02:47:02;;;;;;;;;;;20.30;35.60;;;;;;5067427;28;20349;-48
2022/04/28 02:49:28;;;;;;;;;;;20.30;35.60;;;;;;5053368;28;19956;-53
2022/04/28 02:51:55;;;;;;;;;;;20.30;35.60;;;;;;5041416;28;19952;-48
2022/04/28 02:54:22;;;;;;;;;;;20.30;35.60;;;;;;5065985;28;19971;-52
2022/04/28 02:56:49;;;;;;;;;;;20.30;35.60;;;;;;5047700;28;19920;-50
2022/04/28 02:59:16;;;;;;;;;;;20.30;35.60;;;;;;5040390;28;20277;-51
2022/04/28 03:01:42;;;;;;;;;;;20.30;35.50;;;;;;5058627;28;19975;-51
2022/04/28 03:04:11;;;;;;;;;;;20.30;35.60;;;;;;5044649;28;20348;-53
2022/04/28 03:12:06;;;;;;;;;;;20.30;35.50;;;;;;5066852;28;19955;-53
2022/04/28 03:14:33;;;;;;;;;;;20.30;35.50;;;;;;5051104;28;19920;-50
2022/04/28 03:17:00;;;;;;;;;;;20.30;35.50;;;;;;5057142;28;19975;-55
2022/04/28 03:19:28;;;;;;;;;;;20.30;35.50;;;;;;5058944;28;20435;-53
2022/04/28 03:21:54;;;;;;;;;;;20.30;35.50;;;;;;5065527;28;19964;-50
2022/04/28 03:24:22;;;;;;;;;;;20.30;35.50;;;;;;5034893;28;19921;-48
2022/04/28 03:26:48;;;;;;;;;;;20.30;35.50;;;;;;5051887;28;19921;-48
2022/04/28 03:29:15;;;;;;;;;;;20.30;35.50;;;;;;5052768;28;20273;-48
2022/04/28 03:31:42;;;;;;;;;;;20.30;35.50;;;;;;5040518;28;19974;-52
2022/04/28 03:34:09;;;;;;;;;;;20.30;35.50;;;;;;5037340;28;20279;-47
2022/04/28 03:36:52;;;;;;;;;;;20.30;35.50;;;;;;5053052;28;20012;-51
2022/04/28 03:39:19;;;;;;;;;;;20.30;35.50;;;;;;5051549;28;20416;-48
2022/04/28 03:41:45;;;;;;;;;;;20.30;35.50;;;;;;5061667;28;19925;-49
2022/04/28 03:44:12;;;;;;;;;;;20.30;35.40;;;;;;5050972;28;19921;-51
2022/04/28 03:46:39;;;;;;;;;;;20.30;35.40;;;;;;5054210;28;20416;-53
2022/04/28 03:49:05;;;;;;;;;;;20.30;35.40;;;;;;5037726;28;19964;-47
2022/04/28 03:51:32;;;;;;;;;;;20.30;35.40;;;;;;5051838;28;19929;-51
2022/04/28 03:54:00;;;;;;;;;;;20.30;35.40;;;;;;5051245;28;19927;-53
2022/04/28 03:56:31;;;;;;;;;;;20.30;36.10;;;;;;5035789;28;19928;-53
2022/04/28 03:58:58;;;;;;;;;;;20.30;35.40;;;;;;5050863;28;19925;-50
2022/04/28 04:01:25;;;;;;;;;;;20.30;35.70;;;;;;5044832;28;19932;-51
2022/04/28 04:03:51;;;;;;;;;;;20.30;35.40;;;;;;5057576;28;19928;-51
2022/04/28 04:06:18;;;;;;;;;;;20.30;35.40;;;;;;5053312;28;20047;-48
2022/04/28 04:08:45;;;;;;;;;;;20.30;35.40;;;;;;5058089;28;20015;-50
2022/04/28 04:11:13;;;;;;;;;;;20.30;35.40;;;;;;5062902;28;20417;-48
2022/04/28 04:13:40;;;;;;;;;;;20.30;35.40;;;;;;5071189;28;20015;-51
2022/04/28 04:16:08;;;;;;;;;;;20.30;35.40;;;;;;5054817;28;20475;-51
2022/04/28 04:18:34;;;;;;;;;;;20.30;35.40;;;;;;5062480;28;19924;-54
2022/04/28 04:21:01;;;;;;;;;;;20.30;35.40;;;;;;5051415;28;19990;-47
2022/04/28 04:23:28;;;;;;;;;;;20.30;35.40;;;;;;5056186;28;20028;-52
2022/04/28 04:25:55;;;;;;;;;;;20.30;35.40;;;;;;5044288;28;19948;-51
2022/04/28 04:28:23;;;;;;;;;;;20.30;35.40;;;;;;5036154;28;19924;-52
2022/04/28 04:33:35;;;;;;;;;;;20.30;35.40;;;;;;5048953;28;19925;-49
2022/04/28 04:36:02;;;;;;;;;;;20.30;35.40;;;;;;5037094;28;19928;-52
2022/04/28 04:38:28;;;;;;;;;;;20.30;35.40;;;;;;5053072;28;20015;-47
2022/04/28 04:40:55;;;;;;;;;;;20.30;35.40;;;;;;5056264;28;20322;-50
2022/04/28 04:43:22;;;;;;;;;;;20.30;35.40;;;;;;5053967;28;20019;-48
2022/04/28 04:45:50;;;;;;;;;;;20.30;35.40;;;;;;5039709;28;20401;-53
2022/04/28 04:48:16;;;;;;;;;;;20.30;35.40;;;;;;5071269;28;20281;-50
2022/04/28 04:50:43;;;;;;;;;;;20.30;35.40;;;;;;5059960;28;19963;-47
2022/04/28 04:53:09;;;;;;;;;;;20.30;35.40;;;;;;5070355;28;20281;-48
2022/04/28 04:55:37;;;;;;;;;;;20.30;35.30;;;;;;5060798;28;19974;-51
2022/04/28 04:58:04;;;;;;;;;;;20.30;35.40;;;;;;5052532;28;19927;-50
2022/04/28 05:00:30;;;;;;;;;;;20.30;35.30;;;;;;5051908;28;19967;-55
2022/04/28 05:02:58;;;;;;;;;;;20.30;35.30;;;;;;5069459;28;19946;-51
2022/04/28 05:05:25;;;;;;;;;;;20.30;35.40;;;;;;5057261;28;19920;-47
2022/04/28 05:07:52;;;;;;;;;;;20.30;35.40;;;;;;5055557;28;19947;-49
2022/04/28 05:10:18;;;;;;;;;;;20.30;35.40;;;;;;5054365;28;19921;-48
2022/04/28 05:12:45;;;;;;;;;;;20.30;35.30;;;;;;5038336;28;19927;-50
2022/04/28 05:15:12;;;;;;;;;;;20.30;35.30;;;;;;5054184;28;19974;-48
2022/04/28 05:17:39;;;;;;;;;;;20.30;35.30;;;;;;5059050;28;19921;-52
2022/04/28 05:20:07;;;;;;;;;;;20.30;35.30;;;;;;5046275;28;19956;-49
2022/04/28 05:22:34;;;;;;;;;;;20.30;35.50;;;;;;5037009;28;19921;-49
2022/04/28 05:25:01;;;;;;;;;;;20.30;35.30;;;;;;5055621;28;19975;-53
2022/04/28 05:27:28;;;;;;;;;;;20.30;35.30;;;;;;5058225;28;20003;-50
2022/04/28 05:29:54;;;;;;;;;;;20.30;35.30;;;;;;5057706;28;19956;-48
2022/04/28 05:32:21;;;;;;;;;;;20.30;35.30;;;;;;5058779;28;20378;-52
2022/04/28 05:34:48;;;;;;;;;;;20.30;35.30;;;;;;5052143;28;19921;-51
2022/04/28 05:37:16;;;;;;;;;;;20.30;35.30;;;;;;5044070;28;19928;-47
2022/04/28 05:39:43;;;;;;;;;;;20.30;35.30;;;;;;5069684;28;19920;-46
2022/04/28 05:42:10;;;;;;;;;;;20.30;35.30;;;;;;5072581;28;19921;-50
2022/04/28 05:47:20;;;;;;;;;;;20.30;35.30;;;;;;5040726;28;19924;-54
2022/04/28 05:49:47;;;;;;;;;;;20.30;35.30;;;;;;5072494;28;19952;-47
2022/04/28 05:52:14;;;;;;;;;;;20.30;35.30;;;;;;5044711;28;19927;-53
2022/04/28 05:54:42;;;;;;;;;;;20.30;35.30;;;;;;5056181;28;19921;-47
2022/04/28 05:57:11;;;;;;;;;;;20.30;35.30;;;;;;5053585;28;19927;-52
2022/04/28 05:59:38;;;;;;;;;;;20.30;35.30;;;;;;5038579;28;19995;-54
2022/04/28 06:02:05;;;;;;;;;;;20.30;35.30;;;;;;5057961;28;19970;-50
2022/04/28 06:04:32;;;;;;;;;;;20.30;35.30;;;;;;5053308;28;19973;-53
2022/04/28 06:06:59;;;;;;;;;;;20.30;35.30;;;;;;5065454;28;19953;-50
2022/04/28 06:09:26;;;;;;;;;;;20.30;35.30;;;;;;5060235;28;19924;-51
2022/04/28 06:11:54;;;;;;;;;;;20.30;35.30;;;;;;5034980;28;19978;-52
2022/04/28 06:14:20;;;;;;;;;;;20.30;35.30;;;;;;5052992;28;19920;-55
2022/04/28 06:16:47;;;;;;;;;;;20.30;35.30;;;;;;5064194;28;19940;-47
2022/04/28 06:19:14;;;;;;;;;;;20.30;35.30;;;;;;5055586;28;19921;-47
2022/04/28 06:21:40;;;;;;;;;;;20.30;35.30;;;;;;5054849;28;20012;-51
2022/04/28 06:24:07;;;;;;;;;;;20.30;35.30;;;;;;5035945;28;19927;-54
2022/04/28 06:26:34;;;;;;;;;;;20.30;35.30;;;;;;5065611;28;19926;-51
2022/04/28 06:29:02;;;;;;;;;;;20.30;35.30;;;;;;5052941;28;19971;-50
2022/04/28 06:31:29;;;;;;;;;;;20.30;35.30;;;;;;5035949;28;19925;-51
2022/04/28 06:33:56;;;;;;;;;;;20.30;35.30;;;;;;5048861;28;19971;-46
2022/04/28 06:36:22;;;;;;;;;;;20.30;35.30;;;;;;5071339;28;20371;-46
2022/04/28 06:38:49;;;;;;;;;;;20.30;35.30;;;;;;5052631;28;20362;-48
2022/04/28 06:41:16;;;;;;;;;;;20.30;35.30;;;;;;5048175;28;20438;-49
2022/04/28 06:43:42;;;;;;;;;;;20.30;35.30;;;;;;5050940;28;19927;-50
2022/04/28 06:46:13;;;;;;;;;;;20.30;35.30;;;;;;5051213;28;19975;-52
2022/04/28 06:48:40;;;;;;;;;;;20.30;35.30;;;;;;5035002;28;19966;-50
2022/04/28 06:51:07;;;;;;;;;;;20.30;35.30;;;;;;5054305;28;19928;-48
2022/04/28 06:53:34;;;;;;;;;;;20.30;35.30;;;;;;5054012;28;19942;-50
2022/04/28 06:56:00;;;;;;;;;;;20.30;35.30;;;;;;5065408;28;19960;-51
2022/04/28 06:58:27;;;;;;;;;;;20.30;35.30;;;;;;5052414;28;19964;-50
2022/04/28 07:00:54;;;;;;;;;;;20.30;35.30;;;;;;5049431;28;19921;-47
2022/04/28 07:03:23;;;;;;;;;;;20.30;35.30;;;;;;5071062;28;19924;-50
2022/04/28 07:05:49;;;;;;;;;;;20.30;35.30;;;;;;5052734;28;19925;-51
2022/04/28 07:08:16;;;;;;;;;;;20.30;35.30;;;;;;5056926;28;19920;-47
2022/04/28 07:10:43;;;;;;;;;;;20.30;35.30;;;;;;5072553;28;19956;-49
2022/04/28 07:13:09;;;;;;;;;;;20.30;35.30;;;;;;5058823;28;20518;-50
2022/04/28 07:15:36;;;;;;;;;;;20.30;35.30;;;;;;5053251;28;20282;-48
2022/04/28 07:18:03;;;;;;;;;;;20.30;35.30;;;;;;5060821;28;20385;-47
2022/04/28 07:20:32;;;;;;;;;;;20.30;35.30;;;;;;5065246;28;20019;-51
2022/04/28 07:22:59;;;;;;;;;;;20.30;35.30;;;;;;5054243;28;19920;-50
2022/04/28 07:25:26;;;;;;;;;;;20.30;35.30;;;;;;5045680;28;19920;-48
2022/04/28 07:27:53;;;;;;;;;;;20.30;35.30;;;;;;5056185;28;19974;-49
2022/04/28 07:30:20;;;;;;;;;;;20.30;35.30;;;;;;5047274;28;19921;-49
2022/04/28 07:32:47;;;;;;;;;;;20.30;35.30;;;;;;5054101;28;19966;-49
2022/04/28 07:35:13;;;;;;;;;;;20.30;35.30;;;;;;5035206;28;19925;-47
2022/04/28 07:37:42;;;;;;;;;;;20.30;35.40;;;;;;5053034;28;20260;-48
2022/04/28 07:40:09;;;;;;;;;;;20.30;35.30;;;;;;5071312;28;19920;-53
2022/04/28 07:42:36;;;;;;;;;;;20.30;35.30;;;;;;5072413;28;19921;-47
2022/04/28 07:45:03;;;;;;;;;;;20.30;35.30;;;;;;5063069;28;19982;-49
2022/04/28 07:47:29;;;;;;;;;;;20.30;35.30;;;;;;5055469;28;19932;-46
2022/04/28 07:49:56;;;;;;;;;;;20.30;35.30;;;;;;5051924;28;19933;-51
2022/04/28 07:52:23;;;;;;;;;;;20.30;35.30;;;;;;5053515;28;19920;-48
2022/04/28 07:54:51;;;;;;;;;;;20.30;35.30;;;;;;5053610;28;19921;-47
2022/04/28 07:57:18;;;;;;;;;;;20.30;35.40;;;;;;5053048;28;19982;-46
2022/04/28 07:59:45;;;;;;;;;;;20.30;35.30;;;;;;5070402;28;20031;-51
2022/04/28 08:02:14;;;;;;;;;;;20.30;35.30;;;;;;5051075;28;19927;-50
2022/04/28 08:04:40;;;;;;;;;;;20.30;35.30;;;;;;5057264;28;19935;-50
2022/04/28 08:07:07;;;;;;;;;;;20.30;35.30;;;;;;5069335;28;20335;-49
2022/04/28 08:09:34;;;;;;;;;;;20.30;35.90;;;;;;5071161;28;19929;-48
2022/04/28 08:12:02;;;;;;;;;;;20.30;35.30;;;;;;5055995;28;19974;-50
2022/04/28 08:14:29;;;;;;;;;;;20.30;35.30;;;;;;5061077;28;20316;-49
2022/04/28 08:16:56;;;;;;;;;;;20.30;35.30;;;;;;5061552;28;19971;-49
2022/04/28 08:19:23;;;;;;;;;;;20.30;35.30;;;;;;5068913;28;20487;-48
2022/04/28 08:21:50;;;;;;;;;;;20.30;35.30;;;;;;5044701;28;19920;-51
2022/04/28 08:24:16;;;;;;;;;;;20.30;35.40;;;;;;5061644;28;19924;-50
2022/04/28 08:26:43;;;;;;;;;;;20.30;35.30;;;;;;5071711;28;19924;-47
2022/04/28 08:29:11;;;;;;;;;;;20.30;35.30;;;;;;5075274;28;19931;-51
2022/04/28 08:31:43;;;;;;;;;;;20.30;35.30;;;;;;5077359;28;19927;-52
2022/04/28 08:34:10;;;;;;;;;;;20.30;35.30;;;;;;5084852;28;19920;-52
2022/04/28 08:36:37;;;;;;;;;;;20.30;35.40;;;;;;5061537;28;20368;-48
2022/04/28 08:39:04;;;;;;;;;;;20.30;35.30;;;;;;5058541;28;20024;-54
2022/04/28 08:41:32;;;;;;;;;;;20.30;35.40;;;;;;5064139;28;19920;-49
2022/04/28 08:43:59;;;;;;;;;;;20.30;35.40;;;;;;5045016;28;19925;-49
2022/04/28 08:49:12;;;;;;;;;;;20.30;35.40;;;;;;5058914;28;19921;-47
2022/04/28 08:51:39;;;;;;;;;;;20.30;35.40;;;;;;5058471;28;20019;-48
2022/04/28 08:54:06;;;;;;;;;;;20.30;35.40;;;;;;5059905;28;19920;-54
2022/04/28 08:56:32;;;;;;;;;;;20.30;35.40;;;;;;5038857;28;20400;-51
2022/04/28 08:58:59;;;;;;;;;;;20.30;35.40;;;;;;5063444;28;19943;-49
2022/04/28 09:01:27;;;;;;;;;;;20.30;35.40;;;;;;5058387;28;19926;-49
2022/04/28 09:03:55;;;;;;;;;;;20.30;35.40;;;;;;5059609;28;19928;-48
2022/04/28 09:06:23;;;;;;;;;;;20.30;35.40;;;;;;5075213;28;19920;-47
2022/04/28 09:08:50;;;;;;;;;;;20.30;35.40;;;;;;5056227;28;19921;-51
2022/04/28 09:11:17;;;;;;;;;;;20.30;35.40;;;;;;5053009;28;20023;-52
2022/04/28 09:16:30;;;;;;;;;;;20.30;35.40;;;;;;5055937;28;19925;-52
2022/04/28 09:18:58;;;;;;;;;;;20.30;35.40;;;;;;5060909;28;20365;-50
2022/04/28 09:21:25;;;;;;;;;;;20.30;35.40;;;;;;5052767;28;19920;-48
2022/04/28 09:23:52;;;;;;;;;;;20.30;35.40;;;;;;5054695;28;19928;-52
2022/04/28 09:26:18;;;;;;;;;;;20.30;35.40;;;;;;5052259;28;20267;-52
2022/04/28 09:28:46;;;;;;;;;;;20.30;36.00;;;;;;5052605;28;19925;-48
2022/04/28 09:31:13;;;;;;;;;;;20.30;35.40;;;;;;5057189;28;20340;-46
2022/04/28 09:33:41;;;;;;;;;;;20.40;35.50;;;;;;5052978;28;19920;-49
2022/04/28 09:36:09;;;;;;;;;;;20.30;35.40;;;;;;5070352;28;19921;-49
2022/04/28 09:38:39;;;;;;;;;;;20.40;35.50;;;;;;5054355;28;19921;-46
2022/04/28 09:43:55;;;;;;;;;;;20.30;35.40;;;;;;5071288;28;19920;-46
2022/04/28 09:46:22;;;;;;;;;;;20.40;35.50;;;;;;5061863;28;19980;-51
2022/04/28 09:48:50;;;;;;;;;;;20.30;35.40;;;;;;5065942;28;19925;-48
2022/04/28 09:51:22;;;;;;;;;;;20.40;35.50;;;;;;5036557;28;19925;-50
2022/04/28 09:53:49;;;;;;;;;;;20.40;35.50;;;;;;5045338;28;19924;-48
2022/04/28 09:56:16;;;;;;;;;;;20.40;35.50;;;;;;5055961;28;19931;-48
2022/04/28 09:58:43;;;;;;;;;;;20.30;35.40;;;;;;5053935;28;19921;-48
2022/04/28 10:01:10;;;;;;;;;;;20.30;35.40;;;;;;5058277;28;20322;-46
2022/04/28 10:03:39;;;;;;;;;;;20.40;35.50;;;;;;5048332;28;20019;-51
2022/04/28 10:06:06;;;;;;;;;;;20.40;35.50;;;;;;5056724;28;19925;-51
2022/04/28 10:08:35;;;;;;;;;;;20.30;35.40;;;;;;5051345;28;19928;-52
2022/04/28 10:11:03;;;;;;;;;;;20.40;35.50;;;;;;5072405;28;20369;-49
2022/04/28 10:13:30;;;;;;;;;;;20.40;35.50;;;;;;5072928;28;19931;-48
2022/04/28 10:15:58;;;;;;;;;;;20.40;35.50;;;;;;5071731;28;19921;-48
2022/04/28 10:18:27;;;;;;;;;;;20.30;35.50;;;;;;5070681;28;19920;-51
2022/04/28 10:20:58;;;;;;;;;;;20.30;35.50;;;;;;5068119;28;19951;-49
2022/04/28 10:34:30;;;;;;;;;;;20.40;35.60;;;;;;5051296;28;19970;-50
2022/04/28 10:36:58;;;;;;;;;;;20.40;35.60;;;;;;5049234;28;20516;-51
2022/04/28 10:39:39;;;;;;;;;;;20.40;35.60;;;;;;5064174;28;19963;-53
2022/04/28 10:42:22;;;;;;;;;;;20.40;35.60;;;;;;5071873;28;19924;-50
2022/04/28 10:44:51;;;;;;;;;;;20.40;35.60;;;;;;5071221;28;19942;-51
2022/04/28 10:47:22;;;;;;;;;;;20.40;35.60;;;;;;5055992;28;19931;-53
2022/04/28 10:49:52;;;;;;;;;;;20.40;35.60;;;;;;5070007;28;20381;-47
2022/04/28 10:52:22;;;;;;;;;;;20.40;35.60;;;;;;5072752;28;19921;-48
2022/04/28 10:54:51;;;;;;;;;;;20.40;35.60;;;;;;5065045;28;20280;-48
2022/04/28 10:57:28;;;;;;;;;;;20.40;35.60;;;;;;5073224;28;22248;-52
2022/04/28 10:59:54;;;;;;;;;;;20.40;35.60;;;;;;5073553;28;19920;-49
2022/04/28 11:02:48;;;;;;;;;;;20.40;35.60;;;;;;5055742;28;19942;-50
2022/04/28 11:05:31;;;;;;;;;;;20.40;35.60;;;;;;5055792;28;19982;-48
2022/04/28 11:08:01;;;;;;;;;;;20.40;35.60;;;;;;5039533;28;19956;-54
2022/04/28 11:10:28;;;;;;;;;;;20.40;35.60;;;;;;5065435;28;19920;-51
2022/04/28 11:12:56;;;;;;;;;;;20.40;35.60;;;;;;5055909;28;19927;-46
2022/04/28 11:15:23;;;;;;;;;;;20.40;35.60;;;;;;5069350;28;19921;-51
2022/04/28 11:17:50;;;;;;;;;;;20.40;35.60;;;;;;5072212;28;19950;-52
2022/04/28 11:20:19;;;;;;;;;;;20.40;35.70;;;;;;5073101;28;19924;-48
2022/04/28 11:22:46;;;;;;;;;;;20.40;35.70;;;;;;5054410;28;19940;-52
2022/04/28 11:25:13;;;;;;;;;;;20.40;35.60;;;;;;5054045;28;19921;-49
2022/04/28 11:27:40;;;;;;;;;;;20.40;35.60;;;;;;5051505;28;20011;-53
2022/04/28 11:30:10;;;;;;;;;;;20.40;35.60;;;;;;5059837;28;20393;-52
2022/04/28 11:32:39;;;;;;;;;;;20.40;35.60;;;;;;5063227;28;20386;-48
2022/04/28 11:35:06;;;;;;;;;;;20.40;35.60;;;;;;5060040;28;20019;-49
2022/04/28 11:37:37;;;;;;;;;;;20.40;35.60;;;;;;5049802;28;20297;-54
2022/04/28 11:40:06;;;;;;;;;;;20.40;35.60;;;;;;5055131;28;19921;-48
2022/04/28 11:42:33;;;;;;;;;;;20.40;35.70;;;;;;5041914;28;19925;-50
2022/04/28 11:45:00;;;;;;;;;;;20.40;35.70;;;;;;5048836;28;20312;-53
2022/04/28 11:47:28;;;;;;;;;;;20.40;35.70;;;;;;5076696;28;19928;-50
2022/04/28 11:49:57;;;;;;;;;;;20.40;35.60;;;;;;5056309;28;20104;-50
2022/04/28 11:52:25;;;;;;;;;;;20.40;35.70;;;;;;5038581;28;19947;-51
2022/04/28 11:54:52;;;;;;;;;;;20.40;35.70;;;;;;5049350;28;19927;-52
2022/04/28 11:57:19;;;;;;;;;;;20.40;35.70;;;;;;5058194;28;20008;-54
2022/04/28 11:59:47;;;;;;;;;;;20.40;35.70;;;;;;5060290;28;19931;-49
2022/04/28 12:02:28;;;;;;;;;;;20.40;35.70;;;;;;5075046;28;20237;-49
2022/04/28 12:04:56;;;;;;;;;;;20.40;35.70;;;;;;5050169;28;19959;-53
2022/04/28 12:07:23;;;;;;;;;;;20.40;35.70;;;;;;5054830;28;19921;-53
2022/04/28 12:15:19;;;;;;;;;;;20.40;35.70;;;;;;5057868;28;20020;-52
2022/04/28 12:20:50;;;;;;;;;;;20.40;35.70;;;;;;5065605;28;19920;-52
2022/04/28 12:23:27;;;;;;;;;;;20.40;35.70;;;;;;5057882;28;20391;-48
2022/04/28 12:25:57;;;;;;;;;;;20.40;35.70;;;;;;5048346;28;19936;-48
2022/04/28 12:28:29;;;;;;;;;;;20.40;35.70;;;;;;5039408;28;19979;-56
2022/04/28 12:30:55;;;;;;;;;;;20.40;35.70;;;;;;5049776;28;20331;-48
2022/04/28 12:33:22;;;;;;;;;;;20.40;35.70;;;;;;5056920;28;19924;-50
2022/04/28 12:35:51;;;;;;;;;;;20.40;35.70;;;;;;5065470;28;19921;-50
2022/04/28 12:38:24;;;;;;;;;;;20.40;35.70;;;;;;5057217;28;20006;-50
2022/04/28 12:40:50;;;;;;;;;;;20.40;35.70;;;;;;5050437;28;20300;-50
2022/04/28 12:43:36;;;;;;;;;;;20.40;35.70;;;;;;5038116;28;20012;-50
2022/04/28 12:46:03;;;;;;;;;;;20.40;35.70;;;;;;5067751;28;19924;-48
2022/04/28 12:48:30;;;;;;;;;;;20.40;35.80;;;;;;5055412;28;19974;-48
2022/04/28 12:51:27;;;;;;;;;;;20.40;35.70;;;;;;5061796;28;19933;-52
2022/04/28 12:53:54;;;;;;;;;;;20.40;35.70;;;;;;5053179;28;19939;-47
2022/04/28 12:56:27;;;;;;;;;;;20.40;35.70;;;;;;5068028;28;19920;-52
2022/04/28 12:58:55;;;;;;;;;;;20.40;35.70;;;;;;5049249;28;19925;-51
2022/04/28 13:01:22;;;;;;;;;;;20.40;35.70;;;;;;5057556;28;19925;-53
2022/04/28 13:03:53;;;;;;;;;;;20.40;35.80;;;;;;5053456;28;19990;-55
2022/04/28 13:06:21;;;;;;;;;;;20.40;35.70;;;;;;5050618;28;19928;-51
2022/04/28 13:08:51;;;;;;;;;;;20.40;35.70;;;;;;5055414;28;19925;-51
2022/04/28 13:11:18;;;;;;;;;;;20.40;35.80;;;;;;5063568;28;19963;-50
2022/04/28 13:13:45;;;;;;;;;;;20.40;35.70;;;;;;5036560;28;19966;-52
2022/04/28 13:16:12;;;;;;;;;;;20.40;35.80;;;;;;5060152;28;19928;-51
2022/04/28 13:18:38;;;;;;;;;;;20.40;35.70;;;;;;5071371;28;20023;-53
2022/04/28 13:21:07;;;;;;;;;;;20.40;35.80;;;;;;5054651;28;19927;-53
2022/04/28 13:23:35;;;;;;;;;;;20.40;35.70;;;;;;5053669;28;20366;-50
2022/04/28 13:26:01;;;;;;;;;;;20.40;35.80;;;;;;5063353;28;20326;-52
2022/04/28 13:28:28;;;;;;;;;;;20.40;35.80;;;;;;5041120;28;19952;-49
2022/04/28 13:30:55;;;;;;;;;;;20.40;35.80;;;;;;5058286;28;19928;-47
2022/04/28 13:33:22;;;;;;;;;;;20.40;35.80;;;;;;5038678;28;20346;-50
2022/04/28 13:35:49;;;;;;;;;;;20.40;35.80;;;;;;5040098;28;20447;-52
2022/04/28 13:38:16;;;;;;;;;;;20.40;35.80;;;;;;5053139;28;19928;-52
2022/04/28 13:40:44;;;;;;;;;;;20.40;35.80;;;;;;5043730;28;19925;-51
2022/04/28 13:43:11;;;;;;;;;;;20.40;35.80;;;;;;5042613;28;20266;-53
2022/04/28 13:45:37;;;;;;;;;;;20.40;35.80;;;;;;5056462;28;19961;-50
2022/04/28 13:48:06;;;;;;;;;;;20.40;35.80;;;;;;5037473;28;20030;-52
2022/04/28 13:50:33;;;;;;;;;;;20.40;35.80;;;;;;5061550;28;19924;-53
2022/04/28 13:53:00;;;;;;;;;;;20.40;35.80;;;;;;5074050;28;19920;-52
2022/04/28 13:55:26;;;;;;;;;;;20.40;35.80;;;;;;5074595;28;19924;-52
2022/04/28 13:57:54;;;;;;;;;;;20.40;35.80;;;;;;5065332;28;19995;-48
2022/04/28 14:00:21;;;;;;;;;;;20.40;35.80;;;;;;5055455;28;19921;-52
2022/04/28 14:02:49;;;;;;;;;;;20.40;35.80;;;;;;5054711;28;19924;-53
2022/04/28 14:05:16;;;;;;;;;;;20.40;35.80;;;;;;5035626;28;19921;-52
2022/04/28 14:07:43;;;;;;;;;;;20.40;35.80;;;;;;5054190;28;19978;-50
2022/04/28 14:10:10;;;;;;;;;;;20.40;35.80;;;;;;5053203;28;20082;-47
2022/04/28 14:12:37;;;;;;;;;;;20.40;35.80;;;;;;5054305;28;19920;-52
2022/04/28 14:15:07;;;;;;;;;;;20.40;35.80;;;;;;5056346;28;20342;-50
2022/04/28 14:17:34;;;;;;;;;;;20.40;35.80;;;;;;5064057;28;19971;-49
2022/04/28 14:20:00;;;;;;;;;;;20.40;35.80;;;;;;5053995;28;20276;-48
2022/04/28 14:22:27;;;;;;;;;;;20.40;35.80;;;;;;5062402;28;19951;-50
2022/04/28 14:24:54;;;;;;;;;;;20.40;35.90;;;;;;5059751;28;20395;-47
2022/04/28 14:27:20;;;;;;;;;;;20.40;35.80;;;;;;5055308;28;20015;-50
2022/04/28 14:29:47;;;;;;;;;;;20.40;35.80;;;;;;5036592;28;20424;-51
2022/04/28 14:32:15;;;;;;;;;;;20.40;35.80;;;;;;5051157;28;19927;-51
2022/04/28 14:34:42;;;;;;;;;;;20.40;35.80;;;;;;5035729;28;19925;-49
2022/04/28 14:37:08;;;;;;;;;;;20.40;35.80;;;;;;5044769;28;19931;-49
2022/04/28 14:39:35;;;;;;;;;;;20.40;35.80;;;;;;5059652;28;19976;-51
2022/04/28 14:42:02;;;;;;;;;;;20.40;35.80;;;;;;5057645;28;19924;-50
2022/04/28 14:44:30;;;;;;;;;;;20.40;35.80;;;;;;5035333;28;19925;-49
2022/04/28 14:46:56;;;;;;;;;;;20.40;35.80;;;;;;5048606;28;19943;-49
2022/04/28 14:52:21;;;;;;;;;;;20.40;35.80;;;;;;5055843;28;19932;-47
2022/04/28 14:54:47;;;;;;;;;;;20.40;35.80;;;;;;5043858;28;20524;-47
2022/04/28 14:57:14;;;;;;;;;;;20.40;35.90;;;;;;5068035;28;20011;-50
2022/04/28 14:59:41;;;;;;;;;;;20.40;35.90;;;;;;5055052;28;19924;-53
2022/04/28 15:02:08;;;;;;;;;;;20.40;35.80;;;;;;5054450;28;20392;-53
2022/04/28 15:04:36;;;;;;;;;;;20.40;35.90;;;;;;5054994;28;19936;-50
2022/04/28 15:07:02;;;;;;;;;;;20.40;35.90;;;;;;5053673;28;19926;-51